createdAt,value
2022-09-30T00:01:37.412Z,93.76
2022-09-30T00:04:07.639Z,95.17
2022-09-30T00:06:38.042Z,96.99
2022-09-30T00:09:08.553Z,96.11
2022-09-30T00:11:39.462Z,95.92
2022-09-30T00:14:10.940Z,95.64
2022-09-30T00:16:43.860Z,94.69
2022-09-30T00:19:14.577Z,93.75
2022-09-30T00:21:44.807Z,93.70
2022-09-30T00:24:14.724Z,93.86
2022-09-30T00:26:44.480Z,93.02
2022-09-30T00:29:14.434Z,92.83
2022-09-30T00:31:46.942Z,92.43
2022-09-30T00:34:18.656Z,91.97
2022-09-30T00:36:50.739Z,92.98
2022-09-30T00:39:22.817Z,94.31
2022-09-30T00:41:54.950Z,94.07
2022-09-30T00:44:51.213Z,93.84
2022-09-30T00:47:41.500Z,93.19
2022-09-30T00:50:30.297Z,93.16
2022-09-30T00:53:08.109Z,92.83
2022-09-30T00:55:47.474Z,94.49
2022-09-30T00:58:24.286Z,96.11
2022-09-30T01:00:55.090Z,98.01
2022-09-30T01:03:27.581Z,97.35
2022-09-30T01:05:57.470Z,97.36
2022-09-30T01:08:29.621Z,97.69
2022-09-30T01:10:59.560Z,98.42
2022-09-30T01:13:34.503Z,98.69
2022-09-30T01:16:31.076Z,99.86
2022-09-30T01:19:27.755Z,98.09
2022-09-30T01:22:12.120Z,96.95
2022-09-30T01:25:04.387Z,96.00
2022-09-30T01:27:53.267Z,95.24
2022-09-30T01:30:24.615Z,95.45
2022-09-30T01:33:20.255Z,97.43
2022-09-30T01:36:04.264Z,96.80
2022-09-30T01:38:47.359Z,95.74
2022-09-30T01:41:25.319Z,95.26
2022-09-30T01:44:03.375Z,94.70
2022-09-30T01:46:44.326Z,95.83
2022-09-30T01:49:25.743Z,96.71
2022-09-30T01:52:02.077Z,95.42
2022-09-30T01:54:40.923Z,96.80
2022-09-30T01:57:16.979Z,95.17
2022-09-30T01:59:50.691Z,94.40
2022-09-30T02:02:25.591Z,94.21
2022-09-30T02:05:02.580Z,93.89
2022-09-30T02:07:36.986Z,94.22
2022-09-30T02:10:13.786Z,95.62
2022-09-30T02:12:49.528Z,95.15
2022-09-30T02:15:24.096Z,94.09
2022-09-30T02:17:58.689Z,94.64
2022-09-30T02:20:35.828Z,94.50
2022-09-30T02:23:09.595Z,96.65
2022-09-30T02:25:45.252Z,95.01
2022-09-30T02:28:20.005Z,97.05
2022-09-30T02:30:53.886Z,97.09
2022-09-30T02:33:29.111Z,95.78
2022-09-30T02:36:08.555Z,95.70
2022-09-30T02:38:42.652Z,95.43
2022-09-30T02:41:16.926Z,95.47
2022-09-30T02:43:46.807Z,96.47
2022-09-30T02:46:26.207Z,96.08
2022-09-30T02:49:05.371Z,98.02
2022-09-30T02:51:43.895Z,97.43
2022-09-30T02:54:20.650Z,96.04
2022-09-30T02:56:57.733Z,95.10
2022-09-30T02:59:29.665Z,96.33
2022-09-30T03:01:59.864Z,96.67
2022-09-30T03:04:33.660Z,96.58
2022-09-30T03:07:06.056Z,95.58
2022-09-30T03:09:38.241Z,94.41
2022-09-30T03:12:25.375Z,94.55
2022-09-30T03:15:26.852Z,94.66
2022-09-30T03:18:10.104Z,96.00
2022-09-30T03:20:49.945Z,95.69
2022-09-30T03:23:44.782Z,95.18
2022-09-30T03:26:24.803Z,94.89
2022-09-30T03:29:08.199Z,94.31
2022-09-30T03:31:46.147Z,94.98
2022-09-30T03:34:23.868Z,95.78
2022-09-30T03:37:08.815Z,96.46
2022-09-30T03:39:57.169Z,96.76
2022-09-30T03:42:32.484Z,96.67
2022-09-30T03:45:09.410Z,96.01
2022-09-30T03:47:44.629Z,97.35
2022-09-30T03:50:18.964Z,96.84
2022-09-30T03:52:49.825Z,95.13
2022-09-30T03:55:23.022Z,94.03
2022-09-30T03:57:54.557Z,93.59
2022-09-30T04:00:24.545Z,94.63
2022-09-30T04:02:57.874Z,95.50
2022-09-30T04:05:27.877Z,96.49
2022-09-30T04:07:57.586Z,96.40
2022-09-30T04:10:29.925Z,97.21
2022-09-30T04:12:59.714Z,97.40
2022-09-30T04:15:29.889Z,95.56
2022-09-30T04:17:59.624Z,93.97
2022-09-30T04:20:29.592Z,93.64
2022-09-30T04:23:00.562Z,92.32
2022-09-30T04:25:33.002Z,92.31
2022-09-30T04:28:02.774Z,91.94
2022-09-30T04:30:33.685Z,91.99
2022-09-30T04:33:03.890Z,91.42
2022-09-30T04:35:33.609Z,91.47
2022-09-30T04:38:07.044Z,93.49
2022-09-30T04:40:42.022Z,93.00
2022-09-30T04:43:11.717Z,92.76
2022-09-30T04:45:46.042Z,92.23
2022-09-30T04:48:16.605Z,95.24
2022-09-30T04:50:46.745Z,96.49
2022-09-30T04:53:17.571Z,96.85
2022-09-30T04:55:50.105Z,96.84
2022-09-30T04:58:19.871Z,96.89
2022-09-30T05:00:49.689Z,98.40
2022-09-30T05:03:20.071Z,98.34
2022-09-30T05:05:50.088Z,97.56
2022-09-30T05:08:19.859Z,96.41
2022-09-30T05:10:59.653Z,95.09
2022-09-30T05:13:33.423Z,95.34
2022-09-30T05:16:03.812Z,93.32
2022-09-30T05:18:34.287Z,91.62
2022-09-30T05:21:04.759Z,92.15
2022-09-30T05:23:35.815Z,92.09
2022-09-30T05:26:11.977Z,91.17
2022-09-30T05:28:42.465Z,90.12
2022-09-30T05:31:13.744Z,92.12
2022-09-30T05:33:45.329Z,96.87
2022-09-30T05:36:17.662Z,96.86
2022-09-30T05:38:47.411Z,95.81
2022-09-30T05:41:21.112Z,95.68
2022-09-30T05:43:51.292Z,95.70
2022-09-30T05:46:22.993Z,97.63
2022-09-30T05:48:56.259Z,98.71
2022-09-30T05:51:26.419Z,98.78
2022-09-30T05:53:56.321Z,99.94
2022-09-30T05:56:28.993Z,100.00
2022-09-30T05:59:01.673Z,100.00
2022-09-30T06:01:31.577Z,98.79
2022-09-30T06:04:01.576Z,98.24
2022-09-30T06:06:31.717Z,96.28
2022-09-30T06:09:01.494Z,97.77
2022-09-30T06:11:35.158Z,96.37
2022-09-30T06:14:05.012Z,96.78
2022-09-30T06:16:34.967Z,97.35
2022-09-30T06:19:06.393Z,96.93
2022-09-30T06:21:36.185Z,98.03
2022-09-30T06:24:06.672Z,96.68
2022-09-30T06:26:39.067Z,95.92
2022-09-30T06:29:08.845Z,96.38
2022-09-30T06:31:38.694Z,96.16
2022-09-30T06:34:08.594Z,95.26
2022-09-30T06:36:38.332Z,95.27
2022-09-30T06:39:11.610Z,97.60
2022-09-30T06:41:45.842Z,98.00
2022-09-30T06:44:16.098Z,99.43
2022-09-30T06:46:53.504Z,98.15
2022-09-30T06:49:24.777Z,100.00
2022-09-30T06:51:54.669Z,100.00
2022-09-30T06:54:24.474Z,100.00
2022-09-30T06:56:57.984Z,100.00
2022-09-30T06:59:28.194Z,100.00
2022-09-30T07:01:58.103Z,100.00
2022-09-30T07:04:27.880Z,100.00
2022-09-30T07:06:57.714Z,100.00
2022-09-30T07:09:27.604Z,100.00
2022-09-30T07:12:00.300Z,100.00
2022-09-30T07:14:31.544Z,100.00
2022-09-30T07:17:04.350Z,100.00
2022-09-30T07:19:35.309Z,100.00
2022-09-30T07:22:17.745Z,99.54
2022-09-30T07:24:47.507Z,97.49
2022-09-30T07:27:21.204Z,98.69
2022-09-30T07:30:08.409Z,99.41
2022-09-30T07:32:40.721Z,97.99
2022-09-30T07:35:11.000Z,98.08
2022-09-30T07:37:41.159Z,97.19
2022-09-30T07:40:12.338Z,99.90
2022-09-30T07:42:46.088Z,97.53
2022-09-30T07:45:19.473Z,95.43
2022-09-30T07:47:53.623Z,92.77
2022-09-30T07:50:24.123Z,92.06
2022-09-30T07:52:56.503Z,93.28
2022-09-30T07:55:26.234Z,94.15
2022-09-30T07:57:58.724Z,93.49
2022-09-30T08:00:42.053Z,94.28
2022-09-30T08:03:12.269Z,93.17
2022-09-30T08:05:44.794Z,94.18
2022-09-30T08:08:15.179Z,93.63
2022-09-30T08:10:45.152Z,94.34
2022-09-30T08:13:17.576Z,92.92
2022-09-30T08:15:47.354Z,92.89
2022-09-30T08:18:17.197Z,91.84
2022-09-30T08:20:47.227Z,92.89
2022-09-30T08:23:17.041Z,93.47
2022-09-30T08:25:46.876Z,91.77
2022-09-30T08:28:19.716Z,89.31
2022-09-30T08:30:49.584Z,89.40
2022-09-30T08:33:19.348Z,89.41
2022-09-30T08:35:49.104Z,90.32
2022-09-30T08:38:18.899Z,90.56
2022-09-30T08:41:01.195Z,90.21
2022-09-30T08:43:42.820Z,90.75
2022-09-30T08:46:21.179Z,90.63
2022-09-30T08:49:03.335Z,90.43
2022-09-30T08:51:37.935Z,90.17
2022-09-30T08:54:12.911Z,90.99
2022-09-30T08:56:42.898Z,91.68
2022-09-30T08:59:28.181Z,90.51
2022-09-30T09:02:05.323Z,87.53
2022-09-30T09:04:35.242Z,86.76
2022-09-30T09:07:13.364Z,86.67
2022-09-30T09:09:54.905Z,86.36
2022-09-30T09:12:37.568Z,85.42
2022-09-30T09:15:22.515Z,85.46
2022-09-30T09:18:29.926Z,85.19
2022-09-30T09:21:01.578Z,84.06
2022-09-30T09:23:35.865Z,83.12
2022-09-30T09:26:07.249Z,80.13
2022-09-30T09:28:40.858Z,77.43
2022-09-30T09:31:17.357Z,77.88
2022-09-30T09:33:47.401Z,77.74
2022-09-30T09:36:33.968Z,76.98
2022-09-30T09:39:23.927Z,75.35
2022-09-30T09:42:03.024Z,73.61
2022-09-30T09:44:39.757Z,73.95
2022-09-30T09:47:17.477Z,74.64
2022-09-30T09:49:51.688Z,74.95
2022-09-30T09:53:04.622Z,77.30
2022-09-30T09:55:37.139Z,74.14
2022-09-30T09:58:14.013Z,72.91
2022-09-30T10:00:57.117Z,72.38
2022-09-30T10:03:29.888Z,72.54
2022-09-30T10:06:07.492Z,72.35
2022-09-30T10:08:39.355Z,72.53
2022-09-30T10:11:11.206Z,71.17
2022-09-30T10:13:46.988Z,70.88
2022-09-30T10:16:35.718Z,71.53
2022-09-30T10:19:22.072Z,68.79
2022-09-30T10:21:54.126Z,68.62
2022-09-30T10:24:32.476Z,66.42
2022-09-30T10:27:02.342Z,63.76
2022-09-30T10:29:34.488Z,62.98
2022-09-30T10:32:06.209Z,61.66
2022-09-30T10:34:41.621Z,60.40
2022-09-30T10:37:14.726Z,58.31
2022-09-30T10:39:46.848Z,57.16
2022-09-30T10:42:25.991Z,53.34
2022-09-30T10:44:58.904Z,53.47
2022-09-30T10:47:34.079Z,51.76
2022-09-30T10:50:15.361Z,49.61
2022-09-30T10:52:58.505Z,48.63
2022-09-30T10:55:34.963Z,48.07
2022-09-30T10:58:26.091Z,47.71
2022-09-30T11:01:01.778Z,45.86
2022-09-30T11:03:38.797Z,44.70
2022-09-30T11:06:16.548Z,41.29
2022-09-30T11:08:54.023Z,41.69
2022-09-30T11:11:27.680Z,41.36
2022-09-30T11:14:00.358Z,40.48
2022-09-30T11:16:37.104Z,40.54
2022-09-30T11:19:14.471Z,40.92
2022-09-30T11:21:53.201Z,42.27
2022-09-30T11:24:31.492Z,44.11
2022-09-30T11:27:13.130Z,43.23
2022-09-30T11:29:54.438Z,42.66
2022-09-30T11:32:38.564Z,42.38
2022-09-30T11:35:32.141Z,42.25
2022-09-30T11:38:21.541Z,41.83
2022-09-30T11:41:00.518Z,42.28
2022-09-30T11:43:38.610Z,41.12
2022-09-30T11:46:27.662Z,39.10
2022-09-30T11:49:09.851Z,42.39
2022-09-30T11:51:47.075Z,41.89
2022-09-30T11:54:34.013Z,40.74
2022-09-30T11:57:12.193Z,42.90
2022-09-30T11:59:47.808Z,40.38
2022-09-30T12:02:29.582Z,40.49
2022-09-30T12:05:03.763Z,40.31
2022-09-30T12:07:42.228Z,40.53
2022-09-30T12:10:24.037Z,39.41
2022-09-30T12:12:59.424Z,38.82
2022-09-30T12:15:30.578Z,41.13
2022-09-30T12:18:03.873Z,41.13
2022-09-30T12:20:39.739Z,40.84
2022-09-30T12:23:21.079Z,39.68
2022-09-30T12:25:58.692Z,40.76
2022-09-30T12:28:49.243Z,41.29
2022-09-30T12:31:36.181Z,44.01
2022-09-30T12:34:25.576Z,43.24
2022-09-30T12:37:07.683Z,44.02
2022-09-30T12:40:20.072Z,43.34
2022-09-30T12:43:18.742Z,44.25
2022-09-30T12:46:10.729Z,44.28
2022-09-30T12:48:44.644Z,44.19
2022-09-30T12:51:27.353Z,43.27
2022-09-30T12:54:03.861Z,43.57
2022-09-30T12:56:37.780Z,43.72
2022-09-30T12:59:11.355Z,44.35
2022-09-30T13:01:42.913Z,45.19
2022-09-30T13:04:19.987Z,43.86
2022-09-30T13:07:11.365Z,44.33
2022-09-30T13:09:59.610Z,46.50
2022-09-30T13:12:32.316Z,45.77
2022-09-30T13:15:32.141Z,44.85
2022-09-30T13:18:43.592Z,45.92
2022-09-30T13:21:27.655Z,45.61
2022-09-30T13:24:00.583Z,45.89
2022-09-30T13:26:48.701Z,46.03
2022-09-30T13:29:39.920Z,45.95
2022-09-30T13:32:10.749Z,46.81
2022-09-30T13:35:00.302Z,47.74
2022-09-30T13:37:40.046Z,46.84
2022-09-30T13:40:49.732Z,45.82
2022-09-30T13:43:23.772Z,46.75
2022-09-30T13:45:56.611Z,46.92
2022-09-30T13:48:32.434Z,46.35
2022-09-30T13:51:11.696Z,48.56
2022-09-30T13:53:45.949Z,48.31
2022-09-30T13:56:22.880Z,45.52
2022-09-30T13:59:11.257Z,46.88
2022-09-30T14:01:58.146Z,47.95
2022-09-30T14:05:04.683Z,48.00
2022-09-30T14:07:51.690Z,47.22
2022-09-30T14:10:41.385Z,46.99
2022-09-30T14:13:32.587Z,49.07
2022-09-30T14:16:38.484Z,50.65
2022-09-30T14:19:25.359Z,50.58
2022-09-30T14:21:58.061Z,53.53
2022-09-30T14:24:37.300Z,50.37
2022-09-30T14:27:31.003Z,50.97
2022-09-30T14:30:07.731Z,53.89
2022-09-30T14:32:44.393Z,52.92
2022-09-30T14:35:19.269Z,57.04
2022-09-30T14:37:53.380Z,58.29
2022-09-30T14:40:29.154Z,54.67
2022-09-30T14:43:03.036Z,57.20
2022-09-30T14:45:35.998Z,57.84
2022-09-30T14:48:11.875Z,59.44
2022-09-30T14:50:49.109Z,59.65
2022-09-30T14:53:30.240Z,59.71
2022-09-30T14:56:04.682Z,58.48
2022-09-30T14:58:42.593Z,58.92
2022-09-30T15:01:18.159Z,57.59
2022-09-30T15:03:51.689Z,56.24
2022-09-30T15:06:24.385Z,55.62
2022-09-30T15:09:03.555Z,55.39
2022-09-30T15:11:39.918Z,54.50
2022-09-30T15:14:15.590Z,54.41
2022-09-30T15:16:49.266Z,55.40
2022-09-30T15:19:24.074Z,55.18
2022-09-30T15:21:57.238Z,54.62
2022-09-30T15:24:31.543Z,53.33
2022-09-30T15:27:05.720Z,54.03
2022-09-30T15:29:35.519Z,54.34
2022-09-30T15:32:08.413Z,54.35
2022-09-30T15:34:38.208Z,54.84
2022-09-30T15:37:11.972Z,55.28
2022-09-30T15:39:57.487Z,55.34
2022-09-30T15:42:39.904Z,54.75
2022-09-30T15:45:35.055Z,55.51
2022-09-30T15:48:08.672Z,56.47
2022-09-30T15:50:40.512Z,57.25
2022-09-30T15:53:22.829Z,57.40
2022-09-30T15:55:55.971Z,58.21
2022-09-30T15:58:41.767Z,57.73
2022-09-30T16:01:22.227Z,59.76
2022-09-30T16:03:57.659Z,60.09
2022-09-30T16:06:35.632Z,60.65
2022-09-30T16:09:09.255Z,61.18
2022-09-30T16:11:44.672Z,60.85
2022-09-30T16:14:24.250Z,60.43
2022-09-30T16:16:56.114Z,60.86
2022-09-30T16:19:26.949Z,61.29
2022-09-30T16:21:57.596Z,62.42
2022-09-30T16:24:49.568Z,62.95
2022-09-30T16:27:34.146Z,63.30
2022-09-30T16:30:08.195Z,63.94
2022-09-30T16:32:45.256Z,64.32
2022-09-30T16:35:21.048Z,64.92
2022-09-30T16:37:51.991Z,65.88
2022-09-30T16:40:25.632Z,66.73
2022-09-30T16:42:58.910Z,66.62
2022-09-30T16:45:32.141Z,66.99
2022-09-30T16:48:04.378Z,67.40
2022-09-30T16:50:37.995Z,68.00
2022-09-30T16:53:09.894Z,68.10
2022-09-30T16:55:40.222Z,68.88
2022-09-30T16:58:13.038Z,69.42
2022-09-30T17:00:47.250Z,69.90
2022-09-30T17:03:18.853Z,70.00
2022-09-30T17:05:53.472Z,70.45
2022-09-30T17:08:24.511Z,70.65
2022-09-30T17:10:54.319Z,71.09
2022-09-30T17:13:24.063Z,71.98
2022-09-30T17:15:56.580Z,71.78
2022-09-30T17:18:26.336Z,72.54
2022-09-30T17:20:56.664Z,73.53
2022-09-30T17:23:28.188Z,74.12
2022-09-30T17:25:58.176Z,74.18
2022-09-30T17:28:27.942Z,73.66
2022-09-30T17:31:00.326Z,73.86
2022-09-30T17:33:33.893Z,75.28
2022-09-30T17:36:06.168Z,75.67
2022-09-30T17:38:36.832Z,75.08
2022-09-30T17:41:19.676Z,73.54
2022-09-30T17:43:49.656Z,72.63
2022-09-30T17:46:25.616Z,72.82
2022-09-30T17:48:58.423Z,75.39
2022-09-30T17:51:28.198Z,77.29
2022-09-30T17:53:57.998Z,76.32
2022-09-30T17:56:29.034Z,76.69
2022-09-30T17:59:02.094Z,78.72
2022-09-30T18:01:35.040Z,79.88
2022-09-30T18:04:05.457Z,80.30
2022-09-30T18:06:35.958Z,79.97
2022-09-30T18:09:05.671Z,79.39
2022-09-30T18:11:39.297Z,79.55
2022-09-30T18:14:14.453Z,78.04
2022-09-30T18:16:46.964Z,78.50
2022-09-30T18:19:16.855Z,77.45
2022-09-30T18:21:46.550Z,77.47
2022-09-30T18:24:16.476Z,77.55
2022-09-30T18:26:46.201Z,77.51
2022-09-30T18:29:15.842Z,77.61
2022-09-30T18:31:48.338Z,79.69
2022-09-30T18:34:19.172Z,79.15
2022-09-30T18:36:49.551Z,78.89
2022-09-30T18:39:19.439Z,78.43
2022-09-30T18:41:49.230Z,79.61
2022-09-30T18:44:18.925Z,81.44
2022-09-30T18:46:51.533Z,80.58
2022-09-30T18:49:22.302Z,79.09
2022-09-30T18:51:52.181Z,79.45
2022-09-30T18:54:23.567Z,79.41
2022-09-30T18:56:53.645Z,78.82
2022-09-30T18:59:24.154Z,79.54
2022-09-30T19:01:58.737Z,79.78
2022-09-30T19:04:29.265Z,79.92
2022-09-30T19:06:59.205Z,79.99
2022-09-30T19:09:29.101Z,80.09
2022-09-30T19:11:59.621Z,79.59
2022-09-30T19:14:30.874Z,78.37
2022-09-30T19:17:03.453Z,78.77
2022-09-30T19:19:33.293Z,78.24
2022-09-30T19:22:03.176Z,77.82
2022-09-30T19:24:32.954Z,77.64
2022-09-30T19:27:02.700Z,77.57
2022-09-30T19:29:33.324Z,77.57
2022-09-30T19:32:05.894Z,77.61
2022-09-30T19:34:35.675Z,77.67
2022-09-30T19:37:06.769Z,78.24
2022-09-30T19:39:45.202Z,78.24
2022-09-30T19:42:18.419Z,78.10
2022-09-30T19:44:48.232Z,78.06
2022-09-30T19:47:21.675Z,77.72
2022-09-30T19:49:51.643Z,78.49
2022-09-30T19:52:22.159Z,79.43
2022-09-30T19:54:55.612Z,80.38
2022-09-30T19:57:27.765Z,80.25
2022-09-30T20:00:00.393Z,80.44
2022-09-30T20:02:36.700Z,82.46
2022-09-30T20:05:06.898Z,82.60
2022-09-30T20:07:37.103Z,82.55
2022-09-30T20:10:07.998Z,82.72
2022-09-30T20:12:37.870Z,81.75
2022-09-30T20:15:21.160Z,81.86
2022-09-30T20:17:53.539Z,82.09
2022-09-30T20:20:42.914Z,82.11
2022-09-30T20:23:12.728Z,81.91
2022-09-30T20:25:43.032Z,81.01
2022-09-30T20:28:13.095Z,81.12
2022-09-30T20:30:46.863Z,82.15
2022-09-30T20:33:22.404Z,82.61
2022-09-30T20:35:52.264Z,82.37
2022-09-30T20:38:25.042Z,82.15
2022-09-30T20:40:58.483Z,82.53
2022-09-30T20:43:30.396Z,82.64
2022-09-30T20:46:02.259Z,82.58
2022-09-30T20:48:38.016Z,82.74
2022-09-30T20:51:08.206Z,83.97
2022-09-30T20:53:39.834Z,84.89
2022-09-30T20:56:10.960Z,84.23
2022-09-30T20:58:42.007Z,83.83
2022-09-30T21:01:14.185Z,84.30
2022-09-30T21:03:50.654Z,83.17
2022-09-30T21:06:23.422Z,83.97
2022-09-30T21:08:53.781Z,83.57
2022-09-30T21:11:24.543Z,83.30
2022-09-30T21:13:56.031Z,82.65
2022-09-30T21:16:27.504Z,85.02
2022-09-30T21:19:00.027Z,85.71
2022-09-30T21:21:30.101Z,85.73
2022-09-30T21:24:00.374Z,85.09
2022-09-30T21:26:30.247Z,85.35
2022-09-30T21:29:00.171Z,86.45
2022-09-30T21:31:31.087Z,88.11
2022-09-30T21:34:04.153Z,88.39
2022-09-30T21:36:33.992Z,87.57
2022-09-30T21:39:04.758Z,87.05
2022-09-30T21:41:36.094Z,86.90
2022-09-30T21:44:06.662Z,87.51
2022-09-30T21:46:37.696Z,85.87
2022-09-30T21:49:17.312Z,85.33
2022-09-30T21:51:47.459Z,85.31
2022-09-30T21:54:17.740Z,86.29
2022-09-30T21:56:48.657Z,86.69
2022-09-30T21:59:18.835Z,87.27
2022-09-30T22:01:49.089Z,86.75
2022-09-30T22:04:21.694Z,86.61
2022-09-30T22:06:51.472Z,87.05
2022-09-30T22:09:21.289Z,87.84
2022-09-30T22:11:51.146Z,89.21
2022-09-30T22:14:20.984Z,90.65
2022-09-30T22:16:50.824Z,90.70
2022-09-30T22:19:23.374Z,91.19
2022-09-30T22:21:53.097Z,89.52
2022-09-30T22:24:24.373Z,90.33
2022-09-30T22:26:54.172Z,88.13
2022-09-30T22:29:23.961Z,87.49
2022-09-30T22:31:53.701Z,88.08
2022-09-30T22:34:38.425Z,87.06
2022-09-30T22:37:20.508Z,87.06
2022-09-30T22:39:50.328Z,86.68
2022-09-30T22:42:20.139Z,87.18
2022-09-30T22:44:50.457Z,86.69
2022-09-30T22:47:20.544Z,87.48
2022-09-30T22:49:52.878Z,87.07
2022-09-30T22:52:22.597Z,87.28
2022-09-30T22:54:52.341Z,87.33
2022-09-30T22:57:22.133Z,86.96
2022-09-30T22:59:53.016Z,87.69
2022-09-30T23:02:23.646Z,87.72
2022-09-30T23:04:56.085Z,87.41
2022-09-30T23:07:26.011Z,86.95
2022-09-30T23:09:56.454Z,87.71
2022-09-30T23:12:26.461Z,88.90
2022-09-30T23:14:57.663Z,89.57
2022-09-30T23:17:27.375Z,89.00
2022-09-30T23:20:00.002Z,89.15
2022-09-30T23:22:29.745Z,88.87
2022-09-30T23:25:00.485Z,88.35
2022-09-30T23:27:30.256Z,88.88
2022-09-30T23:29:59.961Z,89.30
2022-09-30T23:32:29.755Z,89.91
2022-09-30T23:35:02.130Z,90.31
2022-09-30T23:37:31.891Z,91.24
2022-09-30T23:40:01.645Z,91.16
2022-09-30T23:42:32.266Z,91.71
2022-09-30T23:45:02.022Z,92.31
2022-09-30T23:47:31.773Z,92.28
2022-09-30T23:50:04.168Z,92.42
2022-09-30T23:52:35.749Z,92.64
2022-09-30T23:55:05.596Z,92.32
2022-09-30T23:57:35.409Z,92.57
